sensor_id;sensor_type;location;lat;lon;timestamp;P1;durP1;ratioP1;P2;durP2;ratioP2
21569;SDS011;57598;50.888;4.746;2023-03-11T00:00:39;77.72;;;71.63;;
21569;SDS011;57598;50.888;4.746;2023-03-11T00:03:07;75.53;;;69.47;;
21569;SDS011;57598;50.888;4.746;2023-03-11T00:05:35;75.65;;;69.45;;
21569;SDS011;57598;50.888;4.746;2023-03-11T00:08:03;72.60;;;66.28;;
21569;SDS011;57598;50.888;4.746;2023-03-11T00:10:32;71.72;;;65.53;;
21569;SDS011;57598;50.888;4.746;2023-03-11T00:12:59;72.95;;;66.55;;
21569;SDS011;57598;50.888;4.746;2023-03-11T00:15:27;79.57;;;72.72;;
21569;SDS011;57598;50.888;4.746;2023-03-11T00:17:58;78.75;;;71.95;;
21569;SDS011;57598;50.888;4.746;2023-03-11T00:20:26;76.20;;;69.53;;
21569;SDS011;57598;50.888;4.746;2023-03-11T00:22:53;76.90;;;70.10;;
21569;SDS011;57598;50.888;4.746;2023-03-11T00:25:21;75.82;;;68.97;;
21569;SDS011;57598;50.888;4.746;2023-03-11T00:27:49;78.55;;;71.45;;
21569;SDS011;57598;50.888;4.746;2023-03-11T00:30:17;78.70;;;71.60;;
21569;SDS011;57598;50.888;4.746;2023-03-11T00:32:45;76.10;;;68.78;;
21569;SDS011;57598;50.888;4.746;2023-03-11T00:35:15;79.85;;;72.25;;
21569;SDS011;57598;50.888;4.746;2023-03-11T00:37:43;78.60;;;71.03;;
21569;SDS011;57598;50.888;4.746;2023-03-11T00:40:12;76.47;;;68.93;;
21569;SDS011;57598;50.888;4.746;2023-03-11T00:42:40;80.00;;;72.30;;
21569;SDS011;57598;50.888;4.746;2023-03-11T00:45:07;75.32;;;67.72;;
21569;SDS011;57598;50.888;4.746;2023-03-11T00:47:35;72.68;;;65.43;;
21569;SDS011;57598;50.888;4.746;2023-03-11T00:50:02;75.55;;;68.03;;
21569;SDS011;57598;50.888;4.746;2023-03-11T00:52:31;72.20;;;64.88;;
21569;SDS011;57598;50.888;4.746;2023-03-11T00:54:58;73.85;;;66.38;;
21569;SDS011;57598;50.888;4.746;2023-03-11T00:57:26;78.55;;;70.65;;
21569;SDS011;57598;50.888;4.746;2023-03-11T00:59:53;78.30;;;70.53;;
21569;SDS011;57598;50.888;4.746;2023-03-11T01:02:21;76.05;;;68.38;;
21569;SDS011;57598;50.888;4.746;2023-03-11T01:04:51;75.30;;;67.60;;
21569;SDS011;57598;50.888;4.746;2023-03-11T01:07:19;77.68;;;69.80;;
21569;SDS011;57598;50.888;4.746;2023-03-11T01:09:48;74.68;;;66.97;;
21569;SDS011;57598;50.888;4.746;2023-03-11T01:12:15;75.70;;;68.00;;
21569;SDS011;57598;50.888;4.746;2023-03-11T01:14:42;75.05;;;67.38;;
21569;SDS011;57598;50.888;4.746;2023-03-11T01:17:10;76.45;;;68.78;;
21569;SDS011;57598;50.888;4.746;2023-03-11T01:19:37;80.72;;;72.68;;
21569;SDS011;57598;50.888;4.746;2023-03-11T01:22:04;83.13;;;74.93;;
21569;SDS011;57598;50.888;4.746;2023-03-11T01:24:32;83.60;;;75.40;;
21569;SDS011;57598;50.888;4.746;2023-03-11T01:27:00;86.03;;;77.63;;
21569;SDS011;57598;50.888;4.746;2023-03-11T01:29:28;77.60;;;69.80;;
21569;SDS011;57598;50.888;4.746;2023-03-11T01:31:55;77.43;;;69.63;;
21569;SDS011;57598;50.888;4.746;2023-03-11T01:34:23;76.45;;;68.68;;
21569;SDS011;57598;50.888;4.746;2023-03-11T01:36:50;80.90;;;72.90;;
21569;SDS011;57598;50.888;4.746;2023-03-11T01:39:18;78.82;;;70.72;;
21569;SDS011;57598;50.888;4.746;2023-03-11T01:41:45;77.82;;;69.82;;
21569;SDS011;57598;50.888;4.746;2023-03-11T01:44:14;77.88;;;69.88;;
21569;SDS011;57598;50.888;4.746;2023-03-11T01:49:26;77.22;;;69.22;;
21569;SDS011;57598;50.888;4.746;2023-03-11T01:51:54;75.90;;;68.10;;
21569;SDS011;57598;50.888;4.746;2023-03-11T01:54:25;73.30;;;65.55;;
21569;SDS011;57598;50.888;4.746;2023-03-11T01:56:53;75.53;;;67.63;;
21569;SDS011;57598;50.888;4.746;2023-03-11T01:59:23;73.38;;;65.63;;
21569;SDS011;57598;50.888;4.746;2023-03-11T02:01:52;77.97;;;70.07;;
21569;SDS011;57598;50.888;4.746;2023-03-11T02:04:21;73.90;;;66.18;;
21569;SDS011;57598;50.888;4.746;2023-03-11T02:06:48;75.72;;;68.03;;
21569;SDS011;57598;50.888;4.746;2023-03-11T02:09:15;74.95;;;67.35;;
21569;SDS011;57598;50.888;4.746;2023-03-11T02:11:44;75.78;;;68.07;;
21569;SDS011;57598;50.888;4.746;2023-03-11T02:14:11;76.75;;;69.05;;
21569;SDS011;57598;50.888;4.746;2023-03-11T02:16:40;77.35;;;69.45;;
21569;SDS011;57598;50.888;4.746;2023-03-11T02:19:09;78.65;;;70.65;;
21569;SDS011;57598;50.888;4.746;2023-03-11T02:21:38;77.00;;;69.10;;
21569;SDS011;57598;50.888;4.746;2023-03-11T02:24:07;74.72;;;67.03;;
21569;SDS011;57598;50.888;4.746;2023-03-11T02:26:38;73.30;;;65.70;;
21569;SDS011;57598;50.888;4.746;2023-03-11T02:29:08;70.15;;;62.72;;
21569;SDS011;57598;50.888;4.746;2023-03-11T02:31:37;71.15;;;63.67;;
21569;SDS011;57598;50.888;4.746;2023-03-11T02:34:05;74.75;;;67.05;;
21569;SDS011;57598;50.888;4.746;2023-03-11T02:36:33;75.88;;;68.07;;
21569;SDS011;57598;50.888;4.746;2023-03-11T02:39:02;75.47;;;67.53;;
21569;SDS011;57598;50.888;4.746;2023-03-11T02:41:34;74.03;;;66.38;;
21569;SDS011;57598;50.888;4.746;2023-03-11T02:44:05;74.43;;;66.63;;
21569;SDS011;57598;50.888;4.746;2023-03-11T02:46:35;76.22;;;68.32;;
21569;SDS011;57598;50.888;4.746;2023-03-11T02:49:04;78.95;;;70.95;;
21569;SDS011;57598;50.888;4.746;2023-03-11T02:51:32;78.82;;;70.82;;
21569;SDS011;57598;50.888;4.746;2023-03-11T02:54:00;76.97;;;69.07;;
21569;SDS011;57598;50.888;4.746;2023-03-11T02:56:29;76.75;;;68.90;;
21569;SDS011;57598;50.888;4.746;2023-03-11T02:58:56;76.47;;;68.78;;
21569;SDS011;57598;50.888;4.746;2023-03-11T03:01:24;78.05;;;70.07;;
21569;SDS011;57598;50.888;4.746;2023-03-11T03:03:53;83.15;;;74.93;;
21569;SDS011;57598;50.888;4.746;2023-03-11T03:06:20;78.88;;;70.88;;
21569;SDS011;57598;50.888;4.746;2023-03-11T03:08:49;79.53;;;71.55;;
21569;SDS011;57598;50.888;4.746;2023-03-11T03:11:16;78.63;;;70.63;;
21569;SDS011;57598;50.888;4.746;2023-03-11T03:13:44;77.93;;;70.03;;
21569;SDS011;57598;50.888;4.746;2023-03-11T03:16:11;78.97;;;70.97;;
21569;SDS011;57598;50.888;4.746;2023-03-11T03:18:38;79.38;;;71.38;;
21569;SDS011;57598;50.888;4.746;2023-03-11T03:21:07;78.28;;;70.28;;
21569;SDS011;57598;50.888;4.746;2023-03-11T03:23:35;76.75;;;68.85;;
21569;SDS011;57598;50.888;4.746;2023-03-11T03:26:02;76.80;;;68.93;;
21569;SDS011;57598;50.888;4.746;2023-03-11T03:28:29;77.78;;;69.78;;
21569;SDS011;57598;50.888;4.746;2023-03-11T03:31:02;76.47;;;68.57;;
21569;SDS011;57598;50.888;4.746;2023-03-11T03:33:30;77.72;;;69.72;;
21569;SDS011;57598;50.888;4.746;2023-03-11T03:35:57;80.50;;;72.30;;
21569;SDS011;57598;50.888;4.746;2023-03-11T03:38:26;81.07;;;72.90;;
21569;SDS011;57598;50.888;4.746;2023-03-11T03:40:53;80.78;;;72.68;;
21569;SDS011;57598;50.888;4.746;2023-03-11T03:43:21;76.90;;;68.95;;
21569;SDS011;57598;50.888;4.746;2023-03-11T03:45:55;78.43;;;70.43;;
21569;SDS011;57598;50.888;4.746;2023-03-11T03:48:32;81.50;;;73.30;;
21569;SDS011;57598;50.888;4.746;2023-03-11T03:51:21;79.63;;;71.43;;
21569;SDS011;57598;50.888;4.746;2023-03-11T03:56:44;76.72;;;68.65;;
21569;SDS011;57598;50.888;4.746;2023-03-11T03:59:12;76.47;;;68.38;;
21569;SDS011;57598;50.888;4.746;2023-03-11T04:01:40;78.10;;;69.90;;
21569;SDS011;57598;50.888;4.746;2023-03-11T04:04:07;78.30;;;70.10;;
21569;SDS011;57598;50.888;4.746;2023-03-11T04:06:34;77.65;;;69.43;;
21569;SDS011;57598;50.888;4.746;2023-03-11T04:09:04;78.50;;;70.30;;
21569;SDS011;57598;50.888;4.746;2023-03-11T04:14:50;76.28;;;68.25;;
21569;SDS011;57598;50.888;4.746;2023-03-11T04:17:18;80.18;;;71.90;;
21569;SDS011;57598;50.888;4.746;2023-03-11T04:19:46;77.22;;;69.15;;
21569;SDS011;57598;50.888;4.746;2023-03-11T04:22:16;75.50;;;67.40;;
21569;SDS011;57598;50.888;4.746;2023-03-11T04:24:44;78.97;;;70.68;;
21569;SDS011;57598;50.888;4.746;2023-03-11T04:27:12;76.47;;;68.38;;
21569;SDS011;57598;50.888;4.746;2023-03-11T04:29:39;76.65;;;68.65;;
21569;SDS011;57598;50.888;4.746;2023-03-11T04:32:08;75.47;;;67.47;;
21569;SDS011;57598;50.888;4.746;2023-03-11T04:34:37;73.15;;;65.15;;
21569;SDS011;57598;50.888;4.746;2023-03-11T04:37:04;72.50;;;64.60;;
21569;SDS011;57598;50.888;4.746;2023-03-11T04:39:32;74.03;;;66.03;;
21569;SDS011;57598;50.888;4.746;2023-03-11T04:42:00;76.22;;;68.03;;
21569;SDS011;57598;50.888;4.746;2023-03-11T04:44:27;80.65;;;72.30;;
21569;SDS011;57598;50.888;4.746;2023-03-11T04:46:55;76.57;;;68.53;;
21569;SDS011;57598;50.888;4.746;2023-03-11T04:49:24;76.72;;;68.82;;
21569;SDS011;57598;50.888;4.746;2023-03-11T04:51:52;77.00;;;69.00;;
21569;SDS011;57598;50.888;4.746;2023-03-11T04:54:20;79.82;;;71.63;;
21569;SDS011;57598;50.888;4.746;2023-03-11T04:56:48;79.25;;;71.03;;
21569;SDS011;57598;50.888;4.746;2023-03-11T04:59:16;81.25;;;72.82;;
21569;SDS011;57598;50.888;4.746;2023-03-11T05:01:43;78.45;;;70.25;;
21569;SDS011;57598;50.888;4.746;2023-03-11T05:04:11;78.10;;;69.97;;
21569;SDS011;57598;50.888;4.746;2023-03-11T05:06:39;76.57;;;68.43;;
21569;SDS011;57598;50.888;4.746;2023-03-11T05:15:10;72.40;;;64.45;;
21569;SDS011;57598;50.888;4.746;2023-03-11T05:17:40;71.80;;;63.72;;
21569;SDS011;57598;50.888;4.746;2023-03-11T05:20:16;74.88;;;66.85;;
21569;SDS011;57598;50.888;4.746;2023-03-11T05:22:52;75.35;;;67.32;;
21569;SDS011;57598;50.888;4.746;2023-03-11T05:25:23;74.95;;;67.05;;
21569;SDS011;57598;50.888;4.746;2023-03-11T05:27:51;71.53;;;63.55;;
21569;SDS011;57598;50.888;4.746;2023-03-11T05:30:18;75.45;;;67.45;;
21569;SDS011;57598;50.888;4.746;2023-03-11T05:32:46;76.95;;;68.88;;
21569;SDS011;57598;50.888;4.746;2023-03-11T05:35:13;73.68;;;65.68;;
21569;SDS011;57598;50.888;4.746;2023-03-11T05:37:41;71.63;;;62.05;;
21569;SDS011;57598;50.888;4.746;2023-03-11T05:40:10;72.63;;;64.78;;
21569;SDS011;57598;50.888;4.746;2023-03-11T05:42:38;73.30;;;65.40;;
21569;SDS011;57598;50.888;4.746;2023-03-11T05:45:06;73.28;;;65.28;;
21569;SDS011;57598;50.888;4.746;2023-03-11T05:47:34;72.68;;;64.68;;
21569;SDS011;57598;50.888;4.746;2023-03-11T05:50:08;74.75;;;66.75;;
21569;SDS011;57598;50.888;4.746;2023-03-11T05:52:44;69.25;;;60.33;;
21569;SDS011;57598;50.888;4.746;2023-03-11T05:55:13;70.00;;;62.13;;
21569;SDS011;57598;50.888;4.746;2023-03-11T05:57:42;73.95;;;65.97;;
21569;SDS011;57598;50.888;4.746;2023-03-11T06:00:10;74.57;;;66.53;;
21569;SDS011;57598;50.888;4.746;2023-03-11T06:02:39;75.85;;;67.65;;
21569;SDS011;57598;50.888;4.746;2023-03-11T06:05:27;71.88;;;64.20;;
21569;SDS011;57598;50.888;4.746;2023-03-11T06:07:55;73.88;;;66.07;;
21569;SDS011;57598;50.888;4.746;2023-03-11T06:10:24;72.10;;;64.35;;
21569;SDS011;57598;50.888;4.746;2023-03-11T06:12:58;68.70;;;61.20;;
21569;SDS011;57598;50.888;4.746;2023-03-11T06:15:35;72.50;;;64.80;;
21569;SDS011;57598;50.888;4.746;2023-03-11T06:18:05;73.45;;;65.75;;
21569;SDS011;57598;50.888;4.746;2023-03-11T06:20:36;71.07;;;63.50;;
21569;SDS011;57598;50.888;4.746;2023-03-11T06:23:07;72.20;;;64.57;;
21569;SDS011;57598;50.888;4.746;2023-03-11T06:25:36;69.25;;;61.65;;
21569;SDS011;57598;50.888;4.746;2023-03-11T06:28:03;70.32;;;62.72;;
21569;SDS011;57598;50.888;4.746;2023-03-11T06:30:31;70.63;;;63.22;;
21569;SDS011;57598;50.888;4.746;2023-03-11T06:32:58;70.85;;;63.45;;
21569;SDS011;57598;50.888;4.746;2023-03-11T06:35:25;68.88;;;61.58;;
21569;SDS011;57598;50.888;4.746;2023-03-11T06:37:53;67.60;;;60.45;;
21569;SDS011;57598;50.888;4.746;2023-03-11T06:40:20;67.28;;;60.15;;
21569;SDS011;57598;50.888;4.746;2023-03-11T06:42:49;70.40;;;63.05;;
21569;SDS011;57598;50.888;4.746;2023-03-11T06:45:16;70.80;;;63.60;;
21569;SDS011;57598;50.888;4.746;2023-03-11T06:47:44;70.38;;;63.22;;
21569;SDS011;57598;50.888;4.746;2023-03-11T06:50:11;69.00;;;61.90;;
21569;SDS011;57598;50.888;4.746;2023-03-11T06:52:39;66.72;;;59.85;;
21569;SDS011;57598;50.888;4.746;2023-03-11T06:55:07;66.20;;;59.35;;
21569;SDS011;57598;50.888;4.746;2023-03-11T06:57:34;64.88;;;58.08;;
21569;SDS011;57598;50.888;4.746;2023-03-11T07:00:03;65.60;;;58.50;;
21569;SDS011;57598;50.888;4.746;2023-03-11T07:02:35;65.75;;;59.05;;
21569;SDS011;57598;50.888;4.746;2023-03-11T07:05:02;63.47;;;56.97;;
21569;SDS011;57598;50.888;4.746;2023-03-11T07:07:29;65.45;;;58.95;;
21569;SDS011;57598;50.888;4.746;2023-03-11T07:09:57;65.93;;;59.28;;
21569;SDS011;57598;50.888;4.746;2023-03-11T07:12:24;68.18;;;61.38;;
21569;SDS011;57598;50.888;4.746;2023-03-11T07:14:53;70.38;;;63.50;;
21569;SDS011;57598;50.888;4.746;2023-03-11T07:17:22;70.93;;;64.13;;
21569;SDS011;57598;50.888;4.746;2023-03-11T07:19:50;70.03;;;63.22;;
21569;SDS011;57598;50.888;4.746;2023-03-11T07:22:17;65.32;;;58.75;;
21569;SDS011;57598;50.888;4.746;2023-03-11T07:24:45;64.90;;;58.60;;
21569;SDS011;57598;50.888;4.746;2023-03-11T07:27:12;65.35;;;59.08;;
21569;SDS011;57598;50.888;4.746;2023-03-11T07:29:40;65.53;;;59.33;;
21569;SDS011;57598;50.888;4.746;2023-03-11T07:32:07;65.80;;;59.80;;
21569;SDS011;57598;50.888;4.746;2023-03-11T07:34:36;66.93;;;60.88;;
21569;SDS011;57598;50.888;4.746;2023-03-11T07:37:03;66.05;;;60.25;;
21569;SDS011;57598;50.888;4.746;2023-03-11T07:39:31;69.90;;;64.00;;
21569;SDS011;57598;50.888;4.746;2023-03-11T07:41:58;67.60;;;61.67;;
21569;SDS011;57598;50.888;4.746;2023-03-11T07:44:25;64.07;;;58.72;;
21569;SDS011;57598;50.888;4.746;2023-03-11T07:46:52;59.88;;;54.70;;
21569;SDS011;57598;50.888;4.746;2023-03-11T07:49:20;60.28;;;55.28;;
21569;SDS011;57598;50.888;4.746;2023-03-11T07:51:48;53.38;;;49.17;;
21569;SDS011;57598;50.888;4.746;2023-03-11T07:54:15;50.65;;;46.85;;
21569;SDS011;57598;50.888;4.746;2023-03-11T07:56:43;47.25;;;43.75;;
21569;SDS011;57598;50.888;4.746;2023-03-11T07:59:10;44.03;;;40.92;;
21569;SDS011;57598;50.888;4.746;2023-03-11T08:01:37;43.58;;;40.35;;
21569;SDS011;57598;50.888;4.746;2023-03-11T08:04:11;39.90;;;37.20;;
21569;SDS011;57598;50.888;4.746;2023-03-11T08:06:41;38.40;;;35.70;;
21569;SDS011;57598;50.888;4.746;2023-03-11T08:09:10;36.38;;;33.95;;
21569;SDS011;57598;50.888;4.746;2023-03-11T08:11:38;34.38;;;32.17;;
21569;SDS011;57598;50.888;4.746;2023-03-11T08:14:05;33.78;;;31.58;;
21569;SDS011;57598;50.888;4.746;2023-03-11T08:16:33;32.15;;;30.00;;
21569;SDS011;57598;50.888;4.746;2023-03-11T08:19:00;30.42;;;28.52;;
21569;SDS011;57598;50.888;4.746;2023-03-11T08:21:28;30.70;;;28.60;;
21569;SDS011;57598;50.888;4.746;2023-03-11T08:23:56;30.08;;;28.17;;
21569;SDS011;57598;50.888;4.746;2023-03-11T08:26:25;28.95;;;27.05;;
21569;SDS011;57598;50.888;4.746;2023-03-11T08:28:53;29.27;;;27.15;;
21569;SDS011;57598;50.888;4.746;2023-03-11T08:31:21;29.00;;;27.20;;
21569;SDS011;57598;50.888;4.746;2023-03-11T08:33:49;28.35;;;26.45;;
21569;SDS011;57598;50.888;4.746;2023-03-11T08:36:17;29.55;;;27.13;;
21569;SDS011;57598;50.888;4.746;2023-03-11T08:38:44;26.67;;;24.90;;
21569;SDS011;57598;50.888;4.746;2023-03-11T08:41:12;26.75;;;25.05;;
21569;SDS011;57598;50.888;4.746;2023-03-11T08:43:40;26.50;;;24.90;;
21569;SDS011;57598;50.888;4.746;2023-03-11T08:46:09;24.85;;;23.35;;
21569;SDS011;57598;50.888;4.746;2023-03-11T08:51:10;24.27;;;22.88;;
21569;SDS011;57598;50.888;4.746;2023-03-11T08:53:37;25.83;;;24.03;;
21569;SDS011;57598;50.888;4.746;2023-03-11T08:56:05;26.52;;;24.70;;
21569;SDS011;57598;50.888;4.746;2023-03-11T08:58:32;24.80;;;23.30;;
21569;SDS011;57598;50.888;4.746;2023-03-11T09:01:01;24.13;;;22.73;;
21569;SDS011;57598;50.888;4.746;2023-03-11T09:05:58;25.15;;;23.65;;
21569;SDS011;57598;50.888;4.746;2023-03-11T09:08:26;26.88;;;24.45;;
21569;SDS011;57598;50.888;4.746;2023-03-11T09:10:53;26.08;;;24.30;;
21569;SDS011;57598;50.888;4.746;2023-03-11T09:13:21;25.95;;;24.45;;
21569;SDS011;57598;50.888;4.746;2023-03-11T09:15:48;26.10;;;24.50;;
21569;SDS011;57598;50.888;4.746;2023-03-11T09:18:17;25.52;;;24.02;;
21569;SDS011;57598;50.888;4.746;2023-03-11T09:20:48;26.27;;;24.35;;
21569;SDS011;57598;50.888;4.746;2023-03-11T09:23:17;24.88;;;23.38;;
21569;SDS011;57598;50.888;4.746;2023-03-11T09:25:45;25.08;;;23.58;;
21569;SDS011;57598;50.888;4.746;2023-03-11T09:28:12;25.23;;;23.73;;
21569;SDS011;57598;50.888;4.746;2023-03-11T09:30:39;25.75;;;24.25;;
21569;SDS011;57598;50.888;4.746;2023-03-11T09:33:07;26.33;;;24.73;;
21569;SDS011;57598;50.888;4.746;2023-03-11T09:35:36;25.38;;;23.88;;
21569;SDS011;57598;50.888;4.746;2023-03-11T09:38:03;24.88;;;23.38;;
21569;SDS011;57598;50.888;4.746;2023-03-11T09:40:33;26.25;;;24.45;;
21569;SDS011;57598;50.888;4.746;2023-03-11T09:43:05;25.70;;;24.10;;
21569;SDS011;57598;50.888;4.746;2023-03-11T09:45:37;24.67;;;23.27;;
21569;SDS011;57598;50.888;4.746;2023-03-11T09:50:38;25.58;;;23.73;;
21569;SDS011;57598;50.888;4.746;2023-03-11T09:53:11;25.63;;;23.75;;
21569;SDS011;57598;50.888;4.746;2023-03-11T09:55:43;24.25;;;22.85;;
21569;SDS011;57598;50.888;4.746;2023-03-11T09:58:12;24.13;;;22.67;;
21569;SDS011;57598;50.888;4.746;2023-03-11T10:00:39;24.65;;;22.58;;
21569;SDS011;57598;50.888;4.746;2023-03-11T10:03:12;23.88;;;22.38;;
21569;SDS011;57598;50.888;4.746;2023-03-11T10:05:41;22.92;;;21.63;;
21569;SDS011;57598;50.888;4.746;2023-03-11T10:08:11;24.15;;;22.65;;
21569;SDS011;57598;50.888;4.746;2023-03-11T10:10:42;23.30;;;22.00;;
21569;SDS011;57598;50.888;4.746;2023-03-11T10:13:12;23.38;;;22.05;;
21569;SDS011;57598;50.888;4.746;2023-03-11T10:15:43;24.77;;;23.27;;
21569;SDS011;57598;50.888;4.746;2023-03-11T10:18:17;24.30;;;22.90;;
21569;SDS011;57598;50.888;4.746;2023-03-11T10:20:50;25.40;;;23.90;;
21569;SDS011;57598;50.888;4.746;2023-03-11T10:25:48;24.42;;;23.02;;
21569;SDS011;57598;50.888;4.746;2023-03-11T10:28:17;25.20;;;23.67;;
21569;SDS011;57598;50.888;4.746;2023-03-11T10:30:46;24.33;;;22.92;;
21569;SDS011;57598;50.888;4.746;2023-03-11T10:33:16;25.80;;;24.02;;
21569;SDS011;57598;50.888;4.746;2023-03-11T10:35:49;25.20;;;23.70;;
21569;SDS011;57598;50.888;4.746;2023-03-11T10:38:18;26.00;;;24.50;;
21569;SDS011;57598;50.888;4.746;2023-03-11T10:43:15;25.27;;;23.77;;
21569;SDS011;57598;50.888;4.746;2023-03-11T10:45:43;25.13;;;23.65;;
21569;SDS011;57598;50.888;4.746;2023-03-11T10:48:13;23.77;;;22.35;;
21569;SDS011;57598;50.888;4.746;2023-03-11T10:50:43;24.90;;;23.27;;
21569;SDS011;57598;50.888;4.746;2023-03-11T10:53:12;23.65;;;22.15;;
21569;SDS011;57598;50.888;4.746;2023-03-11T10:55:45;23.55;;;22.15;;
21569;SDS011;57598;50.888;4.746;2023-03-11T10:58:13;24.08;;;22.70;;
21569;SDS011;57598;50.888;4.746;2023-03-11T11:00:41;23.15;;;21.85;;
21569;SDS011;57598;50.888;4.746;2023-03-11T11:03:14;22.92;;;21.63;;
21569;SDS011;57598;50.888;4.746;2023-03-11T11:05:42;22.52;;;21.23;;
21569;SDS011;57598;50.888;4.746;2023-03-11T11:08:11;22.25;;;20.95;;
21569;SDS011;57598;50.888;4.746;2023-03-11T11:10:49;22.48;;;21.17;;
21569;SDS011;57598;50.888;4.746;2023-03-11T11:13:17;22.40;;;21.10;;
21569;SDS011;57598;50.888;4.746;2023-03-11T11:18:30;22.42;;;21.13;;
21569;SDS011;57598;50.888;4.746;2023-03-11T11:20:59;23.25;;;21.85;;
21569;SDS011;57598;50.888;4.746;2023-03-11T11:23:31;21.98;;;20.67;;
21569;SDS011;57598;50.888;4.746;2023-03-11T11:26:01;21.85;;;20.55;;
21569;SDS011;57598;50.888;4.746;2023-03-11T11:28:29;22.00;;;20.70;;
21569;SDS011;57598;50.888;4.746;2023-03-11T11:30:58;21.50;;;20.30;;
21569;SDS011;57598;50.888;4.746;2023-03-11T11:33:27;20.58;;;19.38;;
21569;SDS011;57598;50.888;4.746;2023-03-11T11:35:55;21.27;;;20.08;;
21569;SDS011;57598;50.888;4.746;2023-03-11T11:38:23;21.40;;;20.20;;
21569;SDS011;57598;50.888;4.746;2023-03-11T11:40:51;22.23;;;20.92;;
21569;SDS011;57598;50.888;4.746;2023-03-11T11:43:20;21.67;;;20.45;;
21569;SDS011;57598;50.888;4.746;2023-03-11T11:45:52;22.23;;;20.92;;
21569;SDS011;57598;50.888;4.746;2023-03-11T11:48:21;22.20;;;20.90;;
21569;SDS011;57598;50.888;4.746;2023-03-11T11:50:50;22.95;;;21.58;;
21569;SDS011;57598;50.888;4.746;2023-03-11T11:53:22;22.30;;;21.00;;
21569;SDS011;57598;50.888;4.746;2023-03-11T11:55:51;23.90;;;21.70;;
21569;SDS011;57598;50.888;4.746;2023-03-11T11:58:20;22.92;;;21.05;;
21569;SDS011;57598;50.888;4.746;2023-03-11T12:00:50;21.08;;;19.88;;
21569;SDS011;57598;50.888;4.746;2023-03-11T12:03:25;21.92;;;20.65;;
21569;SDS011;57598;50.888;4.746;2023-03-11T12:05:57;21.05;;;19.85;;
21569;SDS011;57598;50.888;4.746;2023-03-11T12:08:27;21.45;;;20.25;;
21569;SDS011;57598;50.888;4.746;2023-03-11T12:10:59;21.65;;;20.45;;
21569;SDS011;57598;50.888;4.746;2023-03-11T12:13:46;21.10;;;19.90;;
21569;SDS011;57598;50.888;4.746;2023-03-11T12:16:18;21.85;;;20.55;;
21569;SDS011;57598;50.888;4.746;2023-03-11T12:18:47;21.95;;;20.73;;
21569;SDS011;57598;50.888;4.746;2023-03-11T12:21:20;21.20;;;20.00;;
21569;SDS011;57598;50.888;4.746;2023-03-11T12:23:54;20.98;;;19.77;;
21569;SDS011;57598;50.888;4.746;2023-03-11T12:26:25;20.88;;;19.60;;
21569;SDS011;57598;50.888;4.746;2023-03-11T12:28:56;21.40;;;19.60;;
21569;SDS011;57598;50.888;4.746;2023-03-11T12:31:25;20.63;;;19.42;;
21569;SDS011;57598;50.888;4.746;2023-03-11T12:33:54;20.33;;;19.15;;
21569;SDS011;57598;50.888;4.746;2023-03-11T12:36:23;20.20;;;19.08;;
21569;SDS011;57598;50.888;4.746;2023-03-11T12:38:51;21.70;;;20.40;;
21569;SDS011;57598;50.888;4.746;2023-03-11T12:41:26;22.08;;;20.77;;
21569;SDS011;57598;50.888;4.746;2023-03-11T12:49:21;20.20;;;19.00;;
21569;SDS011;57598;50.888;4.746;2023-03-11T12:51:59;20.33;;;19.13;;
21569;SDS011;57598;50.888;4.746;2023-03-11T12:54:27;20.27;;;19.08;;
21569;SDS011;57598;50.888;4.746;2023-03-11T12:56:56;21.08;;;19.48;;
21569;SDS011;57598;50.888;4.746;2023-03-11T13:02:18;20.88;;;19.67;;
21569;SDS011;57598;50.888;4.746;2023-03-11T13:04:52;21.20;;;19.90;;
21569;SDS011;57598;50.888;4.746;2023-03-11T13:10:32;21.33;;;19.92;;
21569;SDS011;57598;50.888;4.746;2023-03-11T13:13:00;21.10;;;19.80;;
21569;SDS011;57598;50.888;4.746;2023-03-11T13:15:29;19.60;;;18.50;;
21569;SDS011;57598;50.888;4.746;2023-03-11T13:17:57;20.50;;;19.35;;
21569;SDS011;57598;50.888;4.746;2023-03-11T13:20:42;19.90;;;18.77;;
21569;SDS011;57598;50.888;4.746;2023-03-11T13:23:19;20.38;;;19.13;;
21569;SDS011;57598;50.888;4.746;2023-03-11T13:25:57;21.52;;;20.23;;
21569;SDS011;57598;50.888;4.746;2023-03-11T13:31:23;19.83;;;18.67;;
21569;SDS011;57598;50.888;4.746;2023-03-11T13:33:54;19.52;;;18.42;;
21569;SDS011;57598;50.888;4.746;2023-03-11T13:36:37;20.80;;;19.60;;
21569;SDS011;57598;50.888;4.746;2023-03-11T13:39:19;20.55;;;19.35;;
21569;SDS011;57598;50.888;4.746;2023-03-11T13:41:48;21.63;;;20.23;;
21569;SDS011;57598;50.888;4.746;2023-03-11T13:44:23;19.10;;;18.00;;
21569;SDS011;57598;50.888;4.746;2023-03-11T13:46:52;20.27;;;18.63;;
21569;SDS011;57598;50.888;4.746;2023-03-11T13:49:25;19.55;;;18.42;;
21569;SDS011;57598;50.888;4.746;2023-03-11T13:51:55;19.67;;;18.45;;
21569;SDS011;57598;50.888;4.746;2023-03-11T13:54:41;20.67;;;19.48;;
21569;SDS011;57598;50.888;4.746;2023-03-11T13:57:14;19.60;;;18.50;;
21569;SDS011;57598;50.888;4.746;2023-03-11T13:59:49;19.75;;;18.65;;
21569;SDS011;57598;50.888;4.746;2023-03-11T14:02:18;20.60;;;19.40;;
21569;SDS011;57598;50.888;4.746;2023-03-11T14:04:47;20.05;;;18.65;;
21569;SDS011;57598;50.888;4.746;2023-03-11T14:07:21;21.70;;;19.58;;
21569;SDS011;57598;50.888;4.746;2023-03-11T14:09:49;19.27;;;18.17;;
21569;SDS011;57598;50.888;4.746;2023-03-11T14:12:17;19.27;;;18.17;;
21569;SDS011;57598;50.888;4.746;2023-03-11T14:14:47;19.20;;;18.10;;
21569;SDS011;57598;50.888;4.746;2023-03-11T14:17:17;19.90;;;18.80;;
21569;SDS011;57598;50.888;4.746;2023-03-11T14:22:30;20.52;;;19.33;;
21569;SDS011;57598;50.888;4.746;2023-03-11T14:24:57;19.73;;;18.63;;
21569;SDS011;57598;50.888;4.746;2023-03-11T14:27:24;19.35;;;18.25;;
21569;SDS011;57598;50.888;4.746;2023-03-11T14:29:51;20.17;;;18.83;;
21569;SDS011;57598;50.888;4.746;2023-03-11T14:32:24;21.48;;;19.80;;
21569;SDS011;57598;50.888;4.746;2023-03-11T14:34:51;20.17;;;19.05;;
21569;SDS011;57598;50.888;4.746;2023-03-11T14:37:23;19.40;;;18.30;;
21569;SDS011;57598;50.888;4.746;2023-03-11T14:42:20;19.95;;;18.85;;
21569;SDS011;57598;50.888;4.746;2023-03-11T14:44:50;20.27;;;19.08;;
21569;SDS011;57598;50.888;4.746;2023-03-11T14:47:21;20.13;;;19.02;;
21569;SDS011;57598;50.888;4.746;2023-03-11T14:49:50;19.10;;;17.80;;
21569;SDS011;57598;50.888;4.746;2023-03-11T14:52:19;20.33;;;19.13;;
21569;SDS011;57598;50.888;4.746;2023-03-11T14:54:47;20.20;;;19.00;;
21569;SDS011;57598;50.888;4.746;2023-03-11T14:57:17;20.27;;;19.08;;
21569;SDS011;57598;50.888;4.746;2023-03-11T14:59:46;19.30;;;18.20;;
21569;SDS011;57598;50.888;4.746;2023-03-11T15:02:28;20.48;;;19.30;;
21569;SDS011;57598;50.888;4.746;2023-03-11T15:04:57;20.23;;;19.02;;
21569;SDS011;57598;50.888;4.746;2023-03-11T15:07:27;20.00;;;18.80;;
21569;SDS011;57598;50.888;4.746;2023-03-11T15:09:55;20.58;;;19.40;;
21569;SDS011;57598;50.888;4.746;2023-03-11T15:12:29;19.30;;;18.20;;
21569;SDS011;57598;50.888;4.746;2023-03-11T15:14:58;20.17;;;18.98;;
21569;SDS011;57598;50.888;4.746;2023-03-11T15:17:26;19.48;;;18.33;;
21569;SDS011;57598;50.888;4.746;2023-03-11T15:19:56;23.27;;;19.98;;
21569;SDS011;57598;50.888;4.746;2023-03-11T15:22:24;19.20;;;18.00;;